createdAt,value
2023-03-21T00:00:32.943Z,3.35
2023-03-21T00:03:00.229Z,3.20
2023-03-21T00:08:36.145Z,4.25
2023-03-21T00:11:06.422Z,3.58
2023-03-21T00:13:38.619Z,3.63
2023-03-21T00:16:20.735Z,3.78
2023-03-21T00:18:53.936Z,3.97
2023-03-21T00:24:15.728Z,3.28
2023-03-21T00:26:43.078Z,3.20
2023-03-21T00:29:10.507Z,3.40
2023-03-21T00:31:37.823Z,4.70
2023-03-21T00:34:05.336Z,4.53
2023-03-21T00:36:32.809Z,3.53
2023-03-21T00:39:00.933Z,3.33
2023-03-21T00:41:41.573Z,3.80
2023-03-21T00:44:13.702Z,3.72
2023-03-21T00:46:57.049Z,3.28
2023-03-21T00:49:28.087Z,3.60
2023-03-21T00:51:59.444Z,3.28
2023-03-21T00:54:29.608Z,3.60
2023-03-21T00:56:56.875Z,4.32
2023-03-21T00:59:24.147Z,3.40
2023-03-21T01:01:53.604Z,3.80
2023-03-21T01:04:21.534Z,3.35
2023-03-21T01:06:48.891Z,3.75
2023-03-21T01:09:19.426Z,4.03
2023-03-21T01:11:47.534Z,3.75
2023-03-21T01:14:23.056Z,3.38
2023-03-21T01:16:54.367Z,3.70
2023-03-21T01:19:44.278Z,3.45
2023-03-21T01:22:16.707Z,3.55
2023-03-21T01:24:53.149Z,4.22
2023-03-21T01:27:22.716Z,4.13
2023-03-21T01:29:50.442Z,3.80
2023-03-21T01:32:17.794Z,3.47
2023-03-21T01:34:45.121Z,4.13
2023-03-21T01:37:12.455Z,3.30
2023-03-21T01:39:39.720Z,4.70
2023-03-21T01:42:06.974Z,4.78
2023-03-21T01:45:01.060Z,3.58
2023-03-21T01:47:28.632Z,3.85
2023-03-21T01:50:02.714Z,3.30
2023-03-21T01:52:37.861Z,3.85
2023-03-21T01:55:11.909Z,3.97
2023-03-21T01:57:55.152Z,3.38
2023-03-21T02:00:32.407Z,5.03
2023-03-21T02:03:12.566Z,3.17
2023-03-21T02:05:45.833Z,3.95
2023-03-21T02:08:14.115Z,3.65
2023-03-21T02:10:44.024Z,4.20
2023-03-21T02:13:11.622Z,3.92
2023-03-21T02:15:47.309Z,4.30
2023-03-21T02:18:21.660Z,3.90
2023-03-21T02:21:16.215Z,4.78
2023-03-21T02:24:16.334Z,3.87
2023-03-21T02:26:48.165Z,3.47
2023-03-21T02:29:23.346Z,2.95
2023-03-21T02:32:31.534Z,4.28
2023-03-21T02:35:26.924Z,3.10
2023-03-21T02:38:10.863Z,4.00
2023-03-21T02:40:42.843Z,3.85
2023-03-21T02:43:23.616Z,4.97
2023-03-21T02:45:54.012Z,4.35
2023-03-21T02:48:44.373Z,3.53
2023-03-21T02:51:21.622Z,3.78
2023-03-21T02:54:24.903Z,3.90
2023-03-21T02:56:51.369Z,3.53
2023-03-21T02:59:21.085Z,4.07
2023-03-21T03:01:50.112Z,3.70
2023-03-21T03:04:28.842Z,3.88
2023-03-21T03:07:02.368Z,4.47
2023-03-21T03:09:44.601Z,3.10
2023-03-21T03:12:59.896Z,3.80
2023-03-21T03:15:52.531Z,3.28
2023-03-21T03:18:42.553Z,3.35
2023-03-21T03:21:19.877Z,3.65
2023-03-21T03:24:22.758Z,4.35
2023-03-21T03:27:17.825Z,5.28
2023-03-21T03:29:48.392Z,4.22
2023-03-21T03:32:27.143Z,4.38
2023-03-21T03:34:58.743Z,3.58
2023-03-21T03:37:29.734Z,5.50
2023-03-21T03:40:00.486Z,3.92
2023-03-21T03:42:46.338Z,4.15
2023-03-21T03:45:13.752Z,4.05
2023-03-21T03:48:15.709Z,3.67
2023-03-21T03:50:58.606Z,3.35
2023-03-21T03:53:31.172Z,3.67
2023-03-21T03:56:00.389Z,3.78
2023-03-21T03:58:42.976Z,3.25
2023-03-21T04:01:12.486Z,4.10
2023-03-21T04:03:49.759Z,4.07
2023-03-21T04:06:19.704Z,3.10
2023-03-21T04:08:47.009Z,6.00
2023-03-21T04:11:16.237Z,3.67
2023-03-21T04:13:43.532Z,3.40
2023-03-21T04:16:12.950Z,3.22
2023-03-21T04:18:41.387Z,4.65
2023-03-21T04:21:13.515Z,3.50
2023-03-21T04:23:41.994Z,3.13
2023-03-21T04:26:10.082Z,3.33
2023-03-21T04:28:37.494Z,4.28
2023-03-21T04:31:24.159Z,3.35
2023-03-21T04:33:52.072Z,4.32
2023-03-21T04:36:27.585Z,4.43
2023-03-21T04:38:57.139Z,3.15
2023-03-21T04:41:24.539Z,4.07
2023-03-21T04:43:52.620Z,3.95
2023-03-21T04:46:20.017Z,3.45
2023-03-21T04:48:47.354Z,3.80
2023-03-21T04:51:15.512Z,3.40
2023-03-21T04:53:45.178Z,3.50
2023-03-21T04:56:13.242Z,3.40
2023-03-21T04:58:41.327Z,3.17
2023-03-21T05:01:09.033Z,3.60
2023-03-21T05:03:39.956Z,3.22
2023-03-21T05:06:09.016Z,4.13
2023-03-21T05:08:36.723Z,3.20
2023-03-21T05:11:05.356Z,3.95
2023-03-21T05:13:32.693Z,2.63
2023-03-21T05:15:59.986Z,3.72
2023-03-21T05:18:27.392Z,3.40
2023-03-21T05:20:55.321Z,4.43
2023-03-21T05:23:23.909Z,3.65
2023-03-21T05:25:51.541Z,3.22
2023-03-21T05:28:18.860Z,3.55
2023-03-21T05:30:47.402Z,3.28
2023-03-21T05:33:14.966Z,4.00
2023-03-21T05:35:42.353Z,3.80
2023-03-21T05:38:09.625Z,3.83
2023-03-21T05:40:36.906Z,3.53
2023-03-21T05:43:04.213Z,3.22
2023-03-21T05:45:31.469Z,4.30
2023-03-21T05:47:58.749Z,3.85
2023-03-21T05:50:26.048Z,4.35
2023-03-21T05:52:53.386Z,4.57
2023-03-21T05:55:21.181Z,4.60
2023-03-21T05:57:48.568Z,4.47
2023-03-21T06:00:16.580Z,4.13
2023-03-21T06:02:44.406Z,4.57
2023-03-21T06:05:11.836Z,4.28
2023-03-21T06:07:40.434Z,4.13
2023-03-21T06:10:08.338Z,3.80
2023-03-21T06:12:35.712Z,4.00
2023-03-21T06:15:05.531Z,3.67
2023-03-21T06:17:33.351Z,4.55
2023-03-21T06:20:05.017Z,4.72
2023-03-21T06:22:33.981Z,4.38
2023-03-21T06:25:01.660Z,5.72
2023-03-21T06:27:28.989Z,4.40
2023-03-21T06:29:58.069Z,6.45
2023-03-21T06:32:25.758Z,4.45
2023-03-21T06:34:53.212Z,4.18
2023-03-21T06:37:20.774Z,4.63
2023-03-21T06:39:48.172Z,5.10
2023-03-21T06:42:15.993Z,5.40
2023-03-21T06:44:43.498Z,5.03
2023-03-21T06:47:10.789Z,4.32
2023-03-21T06:49:38.037Z,4.03
2023-03-21T06:52:05.593Z,6.72
2023-03-21T06:54:32.826Z,4.05
2023-03-21T06:57:00.287Z,5.60
2023-03-21T06:59:27.676Z,4.55
2023-03-21T07:01:54.895Z,4.32
2023-03-21T07:04:22.181Z,4.35
2023-03-21T07:06:49.485Z,3.38
2023-03-21T07:09:18.217Z,3.65
2023-03-21T07:11:45.576Z,3.80
2023-03-21T07:14:12.922Z,6.50
2023-03-21T07:16:40.342Z,6.15
2023-03-21T07:19:07.677Z,5.18
2023-03-21T07:21:34.960Z,6.45
2023-03-21T07:24:02.302Z,6.72
2023-03-21T07:26:29.610Z,5.13
2023-03-21T07:28:56.956Z,5.40
2023-03-21T07:31:26.904Z,7.00
2023-03-21T07:33:54.422Z,5.43
2023-03-21T07:36:22.167Z,5.35
2023-03-21T07:38:49.497Z,10.50
2023-03-21T07:43:49.048Z,8.52
2023-03-21T07:46:16.525Z,7.18
2023-03-21T07:48:43.855Z,7.13
2023-03-21T07:51:11.178Z,6.28
2023-03-21T07:53:39.232Z,7.03
2023-03-21T07:56:07.395Z,5.82
2023-03-21T07:58:34.765Z,9.82
2023-03-21T08:01:02.406Z,5.68
2023-03-21T08:03:31.023Z,8.25
2023-03-21T08:06:01.428Z,6.72
2023-03-21T08:08:28.718Z,7.20
2023-03-21T08:10:56.033Z,5.93
2023-03-21T08:13:23.425Z,4.88
2023-03-21T08:15:50.939Z,5.75
2023-03-21T08:18:18.176Z,8.15
2023-03-21T08:20:45.652Z,4.25
2023-03-21T08:23:13.899Z,6.25
2023-03-21T08:25:41.365Z,5.05
2023-03-21T08:28:08.727Z,3.83
2023-03-21T08:30:37.746Z,5.72
2023-03-21T08:33:05.241Z,5.10
2023-03-21T08:35:32.910Z,4.78
2023-03-21T08:38:02.429Z,6.68
2023-03-21T08:40:29.830Z,5.38
2023-03-21T08:42:57.146Z,4.18
2023-03-21T08:45:25.457Z,5.50
2023-03-21T08:47:52.888Z,4.82
2023-03-21T08:50:27.885Z,4.18
2023-03-21T08:52:55.137Z,4.35
2023-03-21T08:55:22.498Z,4.38
2023-03-21T08:57:49.853Z,5.75
2023-03-21T09:00:18.408Z,6.03
2023-03-21T09:02:48.513Z,5.10
2023-03-21T09:05:16.950Z,4.93
2023-03-21T09:07:44.660Z,5.00
2023-03-21T09:10:25.878Z,6.43
2023-03-21T09:12:54.910Z,5.78
2023-03-21T09:15:24.937Z,4.60
2023-03-21T09:17:54.181Z,6.65
2023-03-21T09:20:30.023Z,6.35
2023-03-21T09:22:58.410Z,5.82
2023-03-21T09:25:29.451Z,5.10
2023-03-21T09:27:57.530Z,6.68
2023-03-21T09:30:26.441Z,5.20
2023-03-21T09:32:55.846Z,5.40
2023-03-21T09:35:24.401Z,7.25
2023-03-21T09:37:51.864Z,7.15
2023-03-21T09:40:31.898Z,8.10
2023-03-21T09:43:39.792Z,6.00
2023-03-21T09:46:36.733Z,6.15
2023-03-21T09:49:20.478Z,6.85
2023-03-21T09:51:52.850Z,6.93
2023-03-21T09:54:29.019Z,4.53
2023-03-21T09:57:01.093Z,5.88
2023-03-21T09:59:42.939Z,3.83
2023-03-21T10:02:38.654Z,5.57
2023-03-21T10:05:32.001Z,5.15
2023-03-21T10:08:07.524Z,5.28
2023-03-21T10:10:52.902Z,6.97
2023-03-21T10:13:27.768Z,4.57
2023-03-21T10:16:02.100Z,3.80
2023-03-21T10:18:31.334Z,4.65
2023-03-21T10:20:59.283Z,5.95
2023-03-21T10:23:29.115Z,4.90
2023-03-21T10:26:00.072Z,5.32
2023-03-21T10:28:42.414Z,4.03
2023-03-21T10:31:21.501Z,4.03
2023-03-21T10:33:50.629Z,3.92
2023-03-21T10:36:22.774Z,3.75
2023-03-21T10:39:02.079Z,3.50
2023-03-21T10:41:29.518Z,4.75
2023-03-21T10:44:31.398Z,4.82
2023-03-21T10:47:07.141Z,5.00
2023-03-21T10:49:56.528Z,3.53
2023-03-21T10:52:28.744Z,6.30
2023-03-21T10:55:21.488Z,4.07
2023-03-21T10:57:53.091Z,5.05
2023-03-21T11:00:25.668Z,4.28
2023-03-21T11:02:54.425Z,3.88
2023-03-21T11:05:42.308Z,4.55
2023-03-21T11:08:19.898Z,5.38
2023-03-21T11:11:01.467Z,4.30
2023-03-21T11:13:34.975Z,5.63
2023-03-21T11:16:12.274Z,4.18
2023-03-21T11:18:42.927Z,3.78
2023-03-21T11:21:14.781Z,4.30
2023-03-21T11:23:48.178Z,4.00
2023-03-21T11:26:28.478Z,3.78
2023-03-21T11:29:00.251Z,3.17
2023-03-21T11:31:59.118Z,4.28
2023-03-21T11:34:39.185Z,4.45
2023-03-21T11:37:17.529Z,4.38
2023-03-21T11:39:45.785Z,5.38
2023-03-21T11:42:28.737Z,3.90
2023-03-21T11:45:10.442Z,3.83
2023-03-21T11:47:38.627Z,4.13
2023-03-21T11:50:36.316Z,4.45
2023-03-21T11:53:20.753Z,3.88
2023-03-21T11:55:56.189Z,4.47
2023-03-21T11:58:36.381Z,4.40
2023-03-21T12:01:37.240Z,3.72
2023-03-21T12:04:33.031Z,5.00
2023-03-21T12:07:22.047Z,4.13
2023-03-21T12:09:56.073Z,3.25
2023-03-21T12:12:49.340Z,3.65
2023-03-21T12:15:27.836Z,3.05
2023-03-21T12:18:25.390Z,3.92
2023-03-21T12:21:19.929Z,3.45
2023-03-21T12:23:59.237Z,3.03
2023-03-21T12:26:51.374Z,3.10
2023-03-21T12:29:25.922Z,3.03
2023-03-21T12:35:01.379Z,2.97
2023-03-21T12:37:47.583Z,3.13
2023-03-21T12:40:14.821Z,4.15
2023-03-21T12:43:26.454Z,4.15
2023-03-21T12:46:01.254Z,3.35
2023-03-21T12:48:57.992Z,3.38
2023-03-21T12:51:32.721Z,2.88
2023-03-21T12:57:31.534Z,4.32
2023-03-21T13:00:23.970Z,3.38
2023-03-21T13:03:33.568Z,3.83
2023-03-21T13:06:06.949Z,2.90
2023-03-21T13:08:44.510Z,2.78
2023-03-21T13:11:16.404Z,3.60
2023-03-21T13:14:12.322Z,4.28
2023-03-21T13:17:00.947Z,3.13
2023-03-21T13:19:43.933Z,2.47
2023-03-21T13:22:27.661Z,3.22
2023-03-21T13:25:16.875Z,2.65
2023-03-21T13:27:50.652Z,2.85
2023-03-21T13:30:29.855Z,3.23
2023-03-21T13:33:23.927Z,2.75
2023-03-21T13:36:07.264Z,3.13
2023-03-21T13:38:38.411Z,3.17
2023-03-21T13:41:19.099Z,3.15
2023-03-21T13:43:55.494Z,2.92
2023-03-21T13:46:26.021Z,3.90
2023-03-21T13:48:58.867Z,3.42
2023-03-21T13:51:29.729Z,3.75
2023-03-21T13:54:15.538Z,2.70
2023-03-21T13:56:46.478Z,3.08
2023-03-21T13:59:44.720Z,2.03
2023-03-21T14:02:35.926Z,3.08
2023-03-21T14:05:14.681Z,2.63
2023-03-21T14:07:44.565Z,2.35
2023-03-21T14:10:35.188Z,2.40
2023-03-21T14:13:06.197Z,3.17
2023-03-21T14:15:55.000Z,2.22
2023-03-21T14:18:52.255Z,3.90
2023-03-21T14:21:24.238Z,2.78
2023-03-21T14:24:04.215Z,2.88
2023-03-21T14:26:35.642Z,2.58
2023-03-21T14:29:12.373Z,3.33
2023-03-21T14:31:45.612Z,3.50
2023-03-21T14:34:16.780Z,3.83
2023-03-21T14:36:51.643Z,3.50
2023-03-21T14:39:28.496Z,2.10
2023-03-21T14:42:01.333Z,3.50
2023-03-21T14:44:53.606Z,2.92
2023-03-21T14:47:23.288Z,2.10
2023-03-21T14:49:51.210Z,2.75
2023-03-21T14:52:29.697Z,2.97
2023-03-21T14:54:57.954Z,2.05
2023-03-21T14:57:31.314Z,2.25
2023-03-21T15:00:02.032Z,2.30
2023-03-21T15:02:35.486Z,2.45
2023-03-21T15:05:20.709Z,2.67
2023-03-21T15:08:07.155Z,2.30
2023-03-21T15:10:34.470Z,2.42
2023-03-21T15:13:13.447Z,2.65
2023-03-21T15:15:42.098Z,2.03
2023-03-21T15:18:14.755Z,2.63
2023-03-21T15:20:42.307Z,2.15
2023-03-21T15:23:28.404Z,1.95
2023-03-21T15:25:56.283Z,3.25
2023-03-21T15:28:25.443Z,1.50
2023-03-21T15:30:54.307Z,1.67
2023-03-21T15:33:23.727Z,1.67
2023-03-21T15:35:59.770Z,2.50
2023-03-21T15:38:36.466Z,1.60
2023-03-21T15:41:23.036Z,2.05
2023-03-21T15:44:13.453Z,2.13
2023-03-21T15:46:45.979Z,1.60
2023-03-21T15:49:16.327Z,1.70
2023-03-21T15:51:51.011Z,1.88
2023-03-21T15:57:04.153Z,1.50
2023-03-21T15:59:36.440Z,1.90
2023-03-21T16:02:04.892Z,1.90
2023-03-21T16:04:32.523Z,1.80
2023-03-21T16:07:02.545Z,1.58
2023-03-21T16:09:43.072Z,2.53
2023-03-21T16:12:12.719Z,2.53
2023-03-21T16:14:40.513Z,1.75
2023-03-21T16:17:31.034Z,2.25
2023-03-21T16:19:58.403Z,1.48
2023-03-21T16:22:25.899Z,1.60
2023-03-21T16:24:53.835Z,1.75
2023-03-21T16:27:21.648Z,2.83
2023-03-21T16:29:49.010Z,1.85
2023-03-21T16:32:17.965Z,1.50
2023-03-21T16:34:46.314Z,1.48
2023-03-21T16:37:17.141Z,1.70
2023-03-21T16:39:44.428Z,1.63
2023-03-21T16:42:14.809Z,2.20
2023-03-21T16:44:42.300Z,2.80
2023-03-21T16:47:16.893Z,3.08
2023-03-21T16:49:44.956Z,3.13
2023-03-21T16:52:13.694Z,2.38
2023-03-21T16:54:42.233Z,3.03
2023-03-21T16:57:22.176Z,3.65
2023-03-21T16:59:49.487Z,3.67
2023-03-21T17:02:17.027Z,3.50
2023-03-21T17:04:44.692Z,4.00
2023-03-21T17:07:16.310Z,3.50
2023-03-21T17:09:44.089Z,4.05
2023-03-21T17:12:13.832Z,4.18
2023-03-21T17:14:42.638Z,4.28
2023-03-21T17:17:15.705Z,4.30
2023-03-21T17:19:43.605Z,4.40
2023-03-21T17:22:13.304Z,5.50
2023-03-21T17:24:41.793Z,4.78
2023-03-21T17:27:13.447Z,5.28
2023-03-21T17:29:41.009Z,5.40
2023-03-21T17:32:08.492Z,4.55
2023-03-21T17:34:38.406Z,4.97
2023-03-21T17:37:05.982Z,5.35
2023-03-21T17:39:33.336Z,4.55
2023-03-21T17:42:00.762Z,5.10
2023-03-21T17:44:28.090Z,5.07
2023-03-21T17:46:55.688Z,5.70
2023-03-21T17:49:23.117Z,4.95
2023-03-21T17:51:50.555Z,6.22
2023-03-21T17:54:17.990Z,5.43
2023-03-21T17:56:45.303Z,5.80
2023-03-21T17:59:14.572Z,5.97
2023-03-21T18:01:42.903Z,5.25
2023-03-21T18:04:11.088Z,7.03
2023-03-21T18:06:39.093Z,7.55
2023-03-21T18:09:11.043Z,6.10
2023-03-21T18:11:39.650Z,5.57
2023-03-21T18:14:16.349Z,7.35
2023-03-21T18:16:46.018Z,6.38
2023-03-21T18:19:14.556Z,5.05
2023-03-21T18:21:44.652Z,6.30
2023-03-21T18:24:13.177Z,5.93
2023-03-21T18:26:41.131Z,6.78
2023-03-21T18:30:08.083Z,7.03
2023-03-21T18:32:06.369Z,7.07
2023-03-21T18:34:39.173Z,8.20
2023-03-21T18:37:08.331Z,8.02
2023-03-21T18:39:37.126Z,7.28
2023-03-21T18:42:05.625Z,7.03
2023-03-21T18:44:37.949Z,7.45
2023-03-21T18:47:06.742Z,8.95
2023-03-21T18:52:22.691Z,7.88
2023-03-21T18:54:50.387Z,8.10
2023-03-21T18:57:35.544Z,6.97
2023-03-21T19:00:13.786Z,8.50
2023-03-21T19:02:47.572Z,9.00
2023-03-21T19:05:17.972Z,7.60
2023-03-21T19:07:45.678Z,9.88
2023-03-21T19:10:19.025Z,9.85
2023-03-21T19:12:49.212Z,10.80
2023-03-21T19:15:21.384Z,11.38
2023-03-21T19:20:42.054Z,10.55
2023-03-21T19:23:10.231Z,11.55
2023-03-21T19:25:38.333Z,13.15
2023-03-21T19:28:06.074Z,12.60
2023-03-21T19:30:34.142Z,12.90
2023-03-21T19:33:01.684Z,14.25
2023-03-21T19:35:29.108Z,15.50
2023-03-21T19:37:56.510Z,13.43
2023-03-21T19:40:23.967Z,16.20
2023-03-21T19:42:51.524Z,14.43
2023-03-21T19:45:18.925Z,15.05
2023-03-21T19:47:46.389Z,15.63
2023-03-21T19:53:01.106Z,14.35
2023-03-21T19:55:28.879Z,18.52
2023-03-21T19:57:56.240Z,15.60
2023-03-21T20:00:24.097Z,14.57
2023-03-21T20:02:51.772Z,15.43
2023-03-21T20:05:25.504Z,19.10
2023-03-21T20:07:55.348Z,18.07
2023-03-21T20:10:23.758Z,16.85
2023-03-21T20:12:51.385Z,17.30
2023-03-21T20:15:21.655Z,16.88
2023-03-21T20:17:50.430Z,15.20
2023-03-21T20:20:18.767Z,15.73
2023-03-21T20:25:41.705Z,22.05
2023-03-21T20:28:24.677Z,17.95
2023-03-21T20:31:00.329Z,17.70
2023-03-21T20:33:28.451Z,17.25
2023-03-21T20:38:46.968Z,20.17
2023-03-21T20:41:14.644Z,18.20
2023-03-21T20:46:29.519Z,18.15
2023-03-21T20:48:58.318Z,19.13
2023-03-21T20:52:32.663Z,18.70
2023-03-21T20:54:13.190Z,18.23
2023-03-21T20:56:40.480Z,20.58
2023-03-21T20:59:17.689Z,18.08
2023-03-21T21:01:52.338Z,16.80
2023-03-21T21:04:20.576Z,17.10
2023-03-21T21:06:48.908Z,17.80
2023-03-21T21:09:17.343Z,18.52
2023-03-21T21:14:31.932Z,17.42
2023-03-21T21:17:22.475Z,22.08
2023-03-21T21:19:50.446Z,20.20
2023-03-21T21:22:18.313Z,15.68
2023-03-21T21:24:45.678Z,19.85
2023-03-21T21:27:13.809Z,16.13
2023-03-21T21:29:43.318Z,17.55
2023-03-21T21:32:11.449Z,20.80
2023-03-21T21:34:38.860Z,19.58
2023-03-21T21:37:06.192Z,19.58
2023-03-21T21:39:35.248Z,20.40
2023-03-21T21:42:02.705Z,19.23
2023-03-21T21:44:30.375Z,17.88
2023-03-21T21:46:57.768Z,19.95
2023-03-21T21:49:25.499Z,18.30
2023-03-21T21:51:52.965Z,19.27
2023-03-21T21:54:20.305Z,17.52
2023-03-21T21:56:54.089Z,19.05
2023-03-21T21:59:22.255Z,20.08
2023-03-21T22:01:51.438Z,17.88
2023-03-21T22:04:24.811Z,20.38
2023-03-21T22:06:52.109Z,19.70
2023-03-21T22:09:19.533Z,21.20
2023-03-21T22:11:46.828Z,18.55
2023-03-21T22:14:14.169Z,19.38
2023-03-21T22:16:42.127Z,18.67
2023-03-21T22:19:09.788Z,20.42
2023-03-21T22:21:37.062Z,20.25
2023-03-21T22:24:04.811Z,19.50
2023-03-21T22:26:33.570Z,18.85
2023-03-21T22:29:01.994Z,18.25
2023-03-21T22:31:29.284Z,17.80
2023-03-21T22:33:56.583Z,18.50
2023-03-21T22:36:23.990Z,18.55
2023-03-21T22:38:51.353Z,17.50
2023-03-21T22:41:18.674Z,18.92
2023-03-21T22:43:46.192Z,19.23
2023-03-21T22:46:13.571Z,17.25
2023-03-21T22:48:41.495Z,16.60
2023-03-21T22:51:09.076Z,17.45
2023-03-21T22:53:36.424Z,16.73
2023-03-21T22:56:03.808Z,15.57
2023-03-21T22:58:31.124Z,16.17
2023-03-21T23:01:02.554Z,18.15
2023-03-21T23:03:29.837Z,16.67
2023-03-21T23:06:01.292Z,14.98
2023-03-21T23:08:28.685Z,16.60
2023-03-21T23:10:56.115Z,15.00
2023-03-21T23:13:23.947Z,16.05
2023-03-21T23:15:51.427Z,15.75
2023-03-21T23:18:18.738Z,15.13
2023-03-21T23:20:49.832Z,15.23
2023-03-21T23:23:17.364Z,13.85
2023-03-21T23:25:45.183Z,14.57
2023-03-21T23:28:12.462Z,13.00
2023-03-21T23:30:40.100Z,13.27
2023-03-21T23:33:07.611Z,12.85
2023-03-21T23:35:36.273Z,13.27
2023-03-21T23:38:04.215Z,14.55
2023-03-21T23:40:31.491Z,13.45
2023-03-21T23:42:59.668Z,12.30
2023-03-21T23:45:27.216Z,12.77
2023-03-21T23:47:54.606Z,13.30
2023-03-21T23:50:21.932Z,12.20
2023-03-21T23:52:49.370Z,11.45
2023-03-21T23:55:16.700Z,11.40
2023-03-21T23:57:44.045Z,11.95
